sensor_id;sensor_type;location;lat;lon;timestamp;P1;durP1;ratioP1;P2;durP2;ratioP2
58950;SDS011;44730;53.158;6.398;2023-05-07T00:01:09;18.60;;;14.15;;
58950;SDS011;44730;53.158;6.398;2023-05-07T00:03:36;17.80;;;13.93;;
58950;SDS011;44730;53.158;6.398;2023-05-07T00:06:03;19.73;;;15.20;;
58950;SDS011;44730;53.158;6.398;2023-05-07T00:08:29;20.30;;;14.55;;
58950;SDS011;44730;53.158;6.398;2023-05-07T00:10:55;20.63;;;14.75;;
58950;SDS011;44730;53.158;6.398;2023-05-07T00:13:21;22.42;;;15.45;;
58950;SDS011;44730;53.158;6.398;2023-05-07T00:15:47;25.33;;;16.08;;
58950;SDS011;44730;53.158;6.398;2023-05-07T00:18:13;18.92;;;14.55;;
58950;SDS011;44730;53.158;6.398;2023-05-07T00:20:40;18.83;;;14.85;;
58950;SDS011;44730;53.158;6.398;2023-05-07T00:23:06;17.83;;;14.50;;
58950;SDS011;44730;53.158;6.398;2023-05-07T00:25:32;19.65;;;14.90;;
58950;SDS011;44730;53.158;6.398;2023-05-07T00:27:58;20.45;;;13.93;;
58950;SDS011;44730;53.158;6.398;2023-05-07T00:30:28;19.48;;;15.52;;
58950;SDS011;44730;53.158;6.398;2023-05-07T00:32:54;20.20;;;14.13;;
58950;SDS011;44730;53.158;6.398;2023-05-07T00:35:20;20.92;;;14.13;;
58950;SDS011;44730;53.158;6.398;2023-05-07T00:37:47;19.70;;;15.10;;
58950;SDS011;44730;53.158;6.398;2023-05-07T00:40:14;21.75;;;14.98;;
58950;SDS011;44730;53.158;6.398;2023-05-07T00:42:40;18.48;;;14.13;;
58950;SDS011;44730;53.158;6.398;2023-05-07T00:45:06;19.58;;;15.07;;
58950;SDS011;44730;53.158;6.398;2023-05-07T00:47:35;20.40;;;15.63;;
58950;SDS011;44730;53.158;6.398;2023-05-07T00:50:01;19.08;;;14.32;;
58950;SDS011;44730;53.158;6.398;2023-05-07T00:52:27;20.38;;;15.20;;
58950;SDS011;44730;53.158;6.398;2023-05-07T00:54:54;21.70;;;15.00;;
58950;SDS011;44730;53.158;6.398;2023-05-07T00:57:21;20.40;;;15.35;;
58950;SDS011;44730;53.158;6.398;2023-05-07T00:59:47;22.48;;;14.75;;
58950;SDS011;44730;53.158;6.398;2023-05-07T01:02:14;23.23;;;15.57;;
58950;SDS011;44730;53.158;6.398;2023-05-07T01:04:40;23.40;;;16.33;;
58950;SDS011;44730;53.158;6.398;2023-05-07T01:07:06;21.95;;;16.00;;
58950;SDS011;44730;53.158;6.398;2023-05-07T01:09:33;18.30;;;15.20;;
58950;SDS011;44730;53.158;6.398;2023-05-07T01:12:01;20.42;;;15.25;;
58950;SDS011;44730;53.158;6.398;2023-05-07T01:14:27;22.27;;;16.70;;
58950;SDS011;44730;53.158;6.398;2023-05-07T01:16:54;22.02;;;16.63;;
58950;SDS011;44730;53.158;6.398;2023-05-07T01:19:20;20.55;;;15.32;;
58950;SDS011;44730;53.158;6.398;2023-05-07T01:21:48;23.35;;;16.38;;
58950;SDS011;44730;53.158;6.398;2023-05-07T01:24:14;22.70;;;15.80;;
58950;SDS011;44730;53.158;6.398;2023-05-07T01:26:42;22.38;;;14.25;;
58950;SDS011;44730;53.158;6.398;2023-05-07T01:29:14;23.38;;;15.65;;
58950;SDS011;44730;53.158;6.398;2023-05-07T01:31:40;21.58;;;16.25;;
58950;SDS011;44730;53.158;6.398;2023-05-07T01:34:07;23.95;;;16.90;;
58950;SDS011;44730;53.158;6.398;2023-05-07T01:36:34;22.13;;;15.05;;
58950;SDS011;44730;53.158;6.398;2023-05-07T01:39:01;24.23;;;16.65;;
58950;SDS011;44730;53.158;6.398;2023-05-07T01:41:27;20.88;;;15.00;;
58950;SDS011;44730;53.158;6.398;2023-05-07T01:43:54;21.77;;;15.30;;
58950;SDS011;44730;53.158;6.398;2023-05-07T01:46:20;22.60;;;15.38;;
58950;SDS011;44730;53.158;6.398;2023-05-07T01:48:47;21.73;;;15.95;;
58950;SDS011;44730;53.158;6.398;2023-05-07T01:51:13;22.95;;;15.57;;
58950;SDS011;44730;53.158;6.398;2023-05-07T01:53:39;23.00;;;16.27;;
58950;SDS011;44730;53.158;6.398;2023-05-07T01:56:06;27.23;;;16.73;;
58950;SDS011;44730;53.158;6.398;2023-05-07T01:58:33;25.08;;;16.80;;
58950;SDS011;44730;53.158;6.398;2023-05-07T02:00:59;23.48;;;17.08;;
58950;SDS011;44730;53.158;6.398;2023-05-07T02:03:25;23.17;;;16.20;;
58950;SDS011;44730;53.158;6.398;2023-05-07T02:05:51;21.38;;;15.93;;
58950;SDS011;44730;53.158;6.398;2023-05-07T02:08:18;23.65;;;16.17;;
58950;SDS011;44730;53.158;6.398;2023-05-07T02:10:44;24.15;;;17.38;;
58950;SDS011;44730;53.158;6.398;2023-05-07T02:13:11;26.95;;;17.65;;
58950;SDS011;44730;53.158;6.398;2023-05-07T02:15:37;22.73;;;16.65;;
58950;SDS011;44730;53.158;6.398;2023-05-07T02:18:04;23.77;;;15.88;;
58950;SDS011;44730;53.158;6.398;2023-05-07T02:20:31;23.10;;;17.13;;
58950;SDS011;44730;53.158;6.398;2023-05-07T02:22:57;25.45;;;17.50;;
58950;SDS011;44730;53.158;6.398;2023-05-07T02:25:23;25.92;;;17.60;;
58950;SDS011;44730;53.158;6.398;2023-05-07T02:27:51;25.38;;;17.95;;
58950;SDS011;44730;53.158;6.398;2023-05-07T02:30:18;28.35;;;19.67;;
58950;SDS011;44730;53.158;6.398;2023-05-07T02:32:46;27.50;;;18.58;;
58950;SDS011;44730;53.158;6.398;2023-05-07T02:35:12;28.63;;;17.65;;
58950;SDS011;44730;53.158;6.398;2023-05-07T02:37:38;23.77;;;16.38;;
58950;SDS011;44730;53.158;6.398;2023-05-07T02:40:04;25.25;;;17.52;;
58950;SDS011;44730;53.158;6.398;2023-05-07T02:42:31;26.08;;;16.65;;
58950;SDS011;44730;53.158;6.398;2023-05-07T02:44:57;27.67;;;17.90;;
58950;SDS011;44730;53.158;6.398;2023-05-07T02:47:24;26.33;;;17.55;;
58950;SDS011;44730;53.158;6.398;2023-05-07T02:49:52;31.38;;;18.63;;
58950;SDS011;44730;53.158;6.398;2023-05-07T02:52:19;26.73;;;18.52;;
58950;SDS011;44730;53.158;6.398;2023-05-07T02:54:45;26.80;;;17.30;;
58950;SDS011;44730;53.158;6.398;2023-05-07T02:57:11;28.08;;;18.73;;
58950;SDS011;44730;53.158;6.398;2023-05-07T02:59:37;26.83;;;17.42;;
58950;SDS011;44730;53.158;6.398;2023-05-07T03:02:03;27.10;;;18.15;;
58950;SDS011;44730;53.158;6.398;2023-05-07T03:04:30;27.38;;;18.30;;
58950;SDS011;44730;53.158;6.398;2023-05-07T03:06:56;26.90;;;17.50;;
58950;SDS011;44730;53.158;6.398;2023-05-07T03:09:22;27.95;;;17.90;;
58950;SDS011;44730;53.158;6.398;2023-05-07T03:11:49;28.38;;;18.08;;
58950;SDS011;44730;53.158;6.398;2023-05-07T03:14:15;29.70;;;19.90;;
58950;SDS011;44730;53.158;6.398;2023-05-07T03:16:41;29.05;;;19.63;;
58950;SDS011;44730;53.158;6.398;2023-05-07T03:19:07;28.42;;;18.77;;
58950;SDS011;44730;53.158;6.398;2023-05-07T03:21:33;32.30;;;19.33;;
58950;SDS011;44730;53.158;6.398;2023-05-07T03:24:00;29.08;;;19.35;;
58950;SDS011;44730;53.158;6.398;2023-05-07T03:26:26;27.48;;;18.48;;
58950;SDS011;44730;53.158;6.398;2023-05-07T03:28:52;29.80;;;18.67;;
58950;SDS011;44730;53.158;6.398;2023-05-07T03:31:18;29.08;;;18.10;;
58950;SDS011;44730;53.158;6.398;2023-05-07T03:33:51;33.00;;;20.30;;
58950;SDS011;44730;53.158;6.398;2023-05-07T03:36:17;28.55;;;18.17;;
58950;SDS011;44730;53.158;6.398;2023-05-07T03:38:44;27.60;;;19.55;;
58950;SDS011;44730;53.158;6.398;2023-05-07T03:41:10;30.05;;;20.23;;
58950;SDS011;44730;53.158;6.398;2023-05-07T03:43:36;28.13;;;18.63;;
58950;SDS011;44730;53.158;6.398;2023-05-07T03:46:02;32.00;;;19.73;;
58950;SDS011;44730;53.158;6.398;2023-05-07T03:48:28;31.52;;;18.55;;
58950;SDS011;44730;53.158;6.398;2023-05-07T03:50:55;27.98;;;19.30;;
58950;SDS011;44730;53.158;6.398;2023-05-07T03:53:22;32.03;;;20.58;;
58950;SDS011;44730;53.158;6.398;2023-05-07T03:55:48;30.95;;;20.38;;
58950;SDS011;44730;53.158;6.398;2023-05-07T03:58:14;31.88;;;20.05;;
58950;SDS011;44730;53.158;6.398;2023-05-07T04:00:41;27.77;;;17.10;;
58950;SDS011;44730;53.158;6.398;2023-05-07T04:03:07;31.25;;;20.55;;
58950;SDS011;44730;53.158;6.398;2023-05-07T04:05:33;28.30;;;18.42;;
58950;SDS011;44730;53.158;6.398;2023-05-07T04:08:01;31.27;;;20.23;;
58950;SDS011;44730;53.158;6.398;2023-05-07T04:10:29;30.02;;;19.13;;
58950;SDS011;44730;53.158;6.398;2023-05-07T04:12:55;29.77;;;19.77;;
58950;SDS011;44730;53.158;6.398;2023-05-07T04:15:22;30.90;;;19.17;;
58950;SDS011;44730;53.158;6.398;2023-05-07T04:17:49;34.47;;;21.02;;
58950;SDS011;44730;53.158;6.398;2023-05-07T04:20:15;30.17;;;19.58;;
58950;SDS011;44730;53.158;6.398;2023-05-07T04:22:42;26.13;;;17.45;;
58950;SDS011;44730;53.158;6.398;2023-05-07T04:25:08;31.13;;;19.08;;
58950;SDS011;44730;53.158;6.398;2023-05-07T04:27:35;33.20;;;20.17;;
58950;SDS011;44730;53.158;6.398;2023-05-07T04:30:01;31.25;;;19.83;;
58950;SDS011;44730;53.158;6.398;2023-05-07T04:32:29;31.92;;;20.10;;
58950;SDS011;44730;53.158;6.398;2023-05-07T04:34:55;31.02;;;19.77;;
58950;SDS011;44730;53.158;6.398;2023-05-07T04:37:22;29.17;;;19.48;;
58950;SDS011;44730;53.158;6.398;2023-05-07T04:39:48;31.48;;;19.35;;
58950;SDS011;44730;53.158;6.398;2023-05-07T04:42:15;29.45;;;19.30;;
58950;SDS011;44730;53.158;6.398;2023-05-07T04:44:42;28.20;;;17.58;;
58950;SDS011;44730;53.158;6.398;2023-05-07T04:47:08;29.23;;;19.00;;
58950;SDS011;44730;53.158;6.398;2023-05-07T04:49:35;28.27;;;19.17;;
58950;SDS011;44730;53.158;6.398;2023-05-07T04:52:01;30.10;;;18.85;;
58950;SDS011;44730;53.158;6.398;2023-05-07T04:54:28;30.60;;;19.88;;
58950;SDS011;44730;53.158;6.398;2023-05-07T04:56:54;28.58;;;18.75;;
58950;SDS011;44730;53.158;6.398;2023-05-07T04:59:22;29.08;;;19.67;;
58950;SDS011;44730;53.158;6.398;2023-05-07T05:01:48;30.45;;;19.50;;
58950;SDS011;44730;53.158;6.398;2023-05-07T05:04:17;30.00;;;18.77;;
58950;SDS011;44730;53.158;6.398;2023-05-07T05:06:43;27.83;;;19.75;;
58950;SDS011;44730;53.158;6.398;2023-05-07T05:09:09;28.42;;;18.55;;
58950;SDS011;44730;53.158;6.398;2023-05-07T05:11:36;25.17;;;16.90;;
58950;SDS011;44730;53.158;6.398;2023-05-07T05:14:02;28.98;;;18.90;;
58950;SDS011;44730;53.158;6.398;2023-05-07T05:16:28;29.35;;;18.75;;
58950;SDS011;44730;53.158;6.398;2023-05-07T05:18:54;25.70;;;18.48;;
58950;SDS011;44730;53.158;6.398;2023-05-07T05:21:20;28.30;;;17.58;;
58950;SDS011;44730;53.158;6.398;2023-05-07T05:23:46;26.90;;;18.50;;
58950;SDS011;44730;53.158;6.398;2023-05-07T05:26:13;30.40;;;18.02;;
58950;SDS011;44730;53.158;6.398;2023-05-07T05:28:39;24.48;;;17.13;;
58950;SDS011;44730;53.158;6.398;2023-05-07T05:31:05;27.95;;;18.63;;
58950;SDS011;44730;53.158;6.398;2023-05-07T05:33:31;24.48;;;16.92;;
58950;SDS011;44730;53.158;6.398;2023-05-07T05:35:57;26.48;;;17.38;;
58950;SDS011;44730;53.158;6.398;2023-05-07T05:38:23;25.17;;;16.83;;
58950;SDS011;44730;53.158;6.398;2023-05-07T05:40:51;23.83;;;17.35;;
58950;SDS011;44730;53.158;6.398;2023-05-07T05:43:17;25.17;;;17.33;;
58950;SDS011;44730;53.158;6.398;2023-05-07T05:45:43;27.45;;;17.65;;
58950;SDS011;44730;53.158;6.398;2023-05-07T05:48:09;23.83;;;16.95;;
58950;SDS011;44730;53.158;6.398;2023-05-07T05:50:35;24.45;;;16.88;;
58950;SDS011;44730;53.158;6.398;2023-05-07T05:53:01;23.30;;;17.35;;
58950;SDS011;44730;53.158;6.398;2023-05-07T05:55:28;21.27;;;15.40;;
58950;SDS011;44730;53.158;6.398;2023-05-07T05:57:54;24.13;;;16.60;;
58950;SDS011;44730;53.158;6.398;2023-05-07T06:00:20;22.10;;;15.35;;
58950;SDS011;44730;53.158;6.398;2023-05-07T06:02:49;23.52;;;15.82;;
58950;SDS011;44730;53.158;6.398;2023-05-07T06:05:15;23.13;;;15.40;;
58950;SDS011;44730;53.158;6.398;2023-05-07T06:07:41;25.58;;;16.30;;
58950;SDS011;44730;53.158;6.398;2023-05-07T06:10:10;20.35;;;15.32;;
58950;SDS011;44730;53.158;6.398;2023-05-07T06:12:36;23.90;;;15.57;;
58950;SDS011;44730;53.158;6.398;2023-05-07T06:15:02;20.52;;;14.52;;
58950;SDS011;44730;53.158;6.398;2023-05-07T06:17:28;23.75;;;16.48;;
58950;SDS011;44730;53.158;6.398;2023-05-07T06:19:55;24.25;;;16.08;;
58950;SDS011;44730;53.158;6.398;2023-05-07T06:22:21;22.75;;;16.00;;
58950;SDS011;44730;53.158;6.398;2023-05-07T06:24:47;20.13;;;14.35;;
58950;SDS011;44730;53.158;6.398;2023-05-07T06:27:13;21.80;;;15.70;;
58950;SDS011;44730;53.158;6.398;2023-05-07T06:29:40;21.63;;;15.35;;
58950;SDS011;44730;53.158;6.398;2023-05-07T06:32:11;21.27;;;15.30;;
58950;SDS011;44730;53.158;6.398;2023-05-07T06:34:37;20.27;;;15.27;;
58950;SDS011;44730;53.158;6.398;2023-05-07T06:37:12;23.15;;;15.98;;
58950;SDS011;44730;53.158;6.398;2023-05-07T06:39:40;22.80;;;15.05;;
58950;SDS011;44730;53.158;6.398;2023-05-07T06:42:06;20.90;;;14.55;;
58950;SDS011;44730;53.158;6.398;2023-05-07T06:44:32;21.80;;;15.45;;
58950;SDS011;44730;53.158;6.398;2023-05-07T06:46:59;23.42;;;15.77;;
58950;SDS011;44730;53.158;6.398;2023-05-07T06:49:25;22.52;;;15.55;;
58950;SDS011;44730;53.158;6.398;2023-05-07T06:51:52;20.92;;;15.43;;
58950;SDS011;44730;53.158;6.398;2023-05-07T06:54:18;19.98;;;15.52;;
58950;SDS011;44730;53.158;6.398;2023-05-07T06:56:45;22.33;;;15.45;;
58950;SDS011;44730;53.158;6.398;2023-05-07T06:59:11;20.40;;;14.85;;
58950;SDS011;44730;53.158;6.398;2023-05-07T07:01:38;19.10;;;14.48;;
58950;SDS011;44730;53.158;6.398;2023-05-07T07:04:05;21.02;;;15.63;;
58950;SDS011;44730;53.158;6.398;2023-05-07T07:06:31;21.88;;;15.65;;
58950;SDS011;44730;53.158;6.398;2023-05-07T07:08:58;17.23;;;13.43;;
58950;SDS011;44730;53.158;6.398;2023-05-07T07:11:24;21.35;;;16.00;;
58950;SDS011;44730;53.158;6.398;2023-05-07T07:13:50;23.77;;;15.20;;
58950;SDS011;44730;53.158;6.398;2023-05-07T07:16:16;22.30;;;15.43;;
58950;SDS011;44730;53.158;6.398;2023-05-07T07:18:42;21.40;;;14.90;;
58950;SDS011;44730;53.158;6.398;2023-05-07T07:21:09;18.67;;;13.88;;
58950;SDS011;44730;53.158;6.398;2023-05-07T07:23:41;23.50;;;16.33;;
58950;SDS011;44730;53.158;6.398;2023-05-07T07:26:10;20.05;;;14.43;;
58950;SDS011;44730;53.158;6.398;2023-05-07T07:28:41;21.83;;;15.77;;
58950;SDS011;44730;53.158;6.398;2023-05-07T07:31:08;22.08;;;15.77;;
58950;SDS011;44730;53.158;6.398;2023-05-07T07:33:35;21.40;;;15.00;;
58950;SDS011;44730;53.158;6.398;2023-05-07T07:36:03;20.00;;;14.68;;
58950;SDS011;44730;53.158;6.398;2023-05-07T07:38:30;23.23;;;14.05;;
58950;SDS011;44730;53.158;6.398;2023-05-07T07:40:56;21.27;;;15.63;;
58950;SDS011;44730;53.158;6.398;2023-05-07T07:43:22;18.52;;;15.07;;
58950;SDS011;44730;53.158;6.398;2023-05-07T07:45:48;19.77;;;13.57;;
58950;SDS011;44730;53.158;6.398;2023-05-07T07:48:15;22.95;;;15.57;;
58950;SDS011;44730;53.158;6.398;2023-05-07T07:50:41;22.13;;;14.82;;
58950;SDS011;44730;53.158;6.398;2023-05-07T07:53:08;21.05;;;14.82;;
58950;SDS011;44730;53.158;6.398;2023-05-07T07:55:37;23.27;;;15.73;;
58950;SDS011;44730;53.158;6.398;2023-05-07T07:58:05;20.95;;;14.93;;
58950;SDS011;44730;53.158;6.398;2023-05-07T08:00:31;20.05;;;14.63;;
58950;SDS011;44730;53.158;6.398;2023-05-07T08:02:57;19.60;;;15.30;;
58950;SDS011;44730;53.158;6.398;2023-05-07T08:05:24;19.08;;;14.20;;
58950;SDS011;44730;53.158;6.398;2023-05-07T08:07:50;21.20;;;15.30;;
58950;SDS011;44730;53.158;6.398;2023-05-07T08:10:18;21.67;;;15.25;;
58950;SDS011;44730;53.158;6.398;2023-05-07T08:12:47;21.40;;;14.70;;
58950;SDS011;44730;53.158;6.398;2023-05-07T08:15:14;21.92;;;15.63;;
58950;SDS011;44730;53.158;6.398;2023-05-07T08:17:40;19.10;;;14.77;;
58950;SDS011;44730;53.158;6.398;2023-05-07T08:20:06;24.63;;;15.30;;
58950;SDS011;44730;53.158;6.398;2023-05-07T08:22:33;21.65;;;15.52;;
58950;SDS011;44730;53.158;6.398;2023-05-07T08:25:00;20.13;;;16.02;;
58950;SDS011;44730;53.158;6.398;2023-05-07T08:27:26;20.48;;;14.43;;
58950;SDS011;44730;53.158;6.398;2023-05-07T08:29:52;23.13;;;15.63;;
58950;SDS011;44730;53.158;6.398;2023-05-07T08:32:20;20.67;;;15.93;;
58950;SDS011;44730;53.158;6.398;2023-05-07T08:34:46;20.27;;;14.52;;
58950;SDS011;44730;53.158;6.398;2023-05-07T08:37:13;21.65;;;17.38;;
58950;SDS011;44730;53.158;6.398;2023-05-07T08:39:39;19.23;;;15.13;;
58950;SDS011;44730;53.158;6.398;2023-05-07T08:42:07;19.25;;;17.13;;
58950;SDS011;44730;53.158;6.398;2023-05-07T08:44:35;20.08;;;14.88;;
58950;SDS011;44730;53.158;6.398;2023-05-07T08:47:01;20.67;;;15.60;;
58950;SDS011;44730;53.158;6.398;2023-05-07T08:49:27;20.58;;;17.77;;
58950;SDS011;44730;53.158;6.398;2023-05-07T08:51:54;20.45;;;17.17;;
58950;SDS011;44730;53.158;6.398;2023-05-07T08:54:21;21.83;;;17.60;;
58950;SDS011;44730;53.158;6.398;2023-05-07T08:56:47;20.65;;;17.23;;
58950;SDS011;44730;53.158;6.398;2023-05-07T08:59:13;20.60;;;17.35;;
58950;SDS011;44730;53.158;6.398;2023-05-07T09:01:41;19.00;;;16.48;;
58950;SDS011;44730;53.158;6.398;2023-05-07T09:04:07;20.98;;;16.95;;
58950;SDS011;44730;53.158;6.398;2023-05-07T09:06:35;20.75;;;17.80;;
58950;SDS011;44730;53.158;6.398;2023-05-07T09:09:03;19.15;;;16.40;;
58950;SDS011;44730;53.158;6.398;2023-05-07T09:11:30;19.85;;;16.63;;
58950;SDS011;44730;53.158;6.398;2023-05-07T09:13:57;19.02;;;16.92;;
58950;SDS011;44730;53.158;6.398;2023-05-07T09:16:32;20.55;;;17.08;;
58950;SDS011;44730;53.158;6.398;2023-05-07T09:18:59;19.60;;;17.08;;
58950;SDS011;44730;53.158;6.398;2023-05-07T09:21:26;18.23;;;16.30;;
58950;SDS011;44730;53.158;6.398;2023-05-07T09:23:53;19.90;;;16.00;;
58950;SDS011;44730;53.158;6.398;2023-05-07T09:26:23;19.48;;;16.77;;
58950;SDS011;44730;53.158;6.398;2023-05-07T09:28:49;18.65;;;16.40;;
58950;SDS011;44730;53.158;6.398;2023-05-07T09:31:15;17.83;;;15.90;;
58950;SDS011;44730;53.158;6.398;2023-05-07T09:33:41;16.83;;;15.13;;
58950;SDS011;44730;53.158;6.398;2023-05-07T09:36:08;17.80;;;15.88;;
58950;SDS011;44730;53.158;6.398;2023-05-07T09:38:35;18.50;;;15.77;;
58950;SDS011;44730;53.158;6.398;2023-05-07T09:41:08;17.17;;;15.38;;
58950;SDS011;44730;53.158;6.398;2023-05-07T09:43:36;17.88;;;15.68;;
58950;SDS011;44730;53.158;6.398;2023-05-07T09:46:03;17.08;;;14.90;;
58950;SDS011;44730;53.158;6.398;2023-05-07T09:48:31;17.38;;;15.05;;
58950;SDS011;44730;53.158;6.398;2023-05-07T09:50:58;16.70;;;14.90;;
58950;SDS011;44730;53.158;6.398;2023-05-07T09:53:28;18.13;;;15.95;;
58950;SDS011;44730;53.158;6.398;2023-05-07T09:55:55;16.52;;;14.70;;
58950;SDS011;44730;53.158;6.398;2023-05-07T09:58:23;17.38;;;14.95;;
58950;SDS011;44730;53.158;6.398;2023-05-07T10:00:49;17.13;;;15.35;;
58950;SDS011;44730;53.158;6.398;2023-05-07T10:03:16;16.83;;;15.07;;
58950;SDS011;44730;53.158;6.398;2023-05-07T10:05:42;16.83;;;15.02;;
58950;SDS011;44730;53.158;6.398;2023-05-07T10:08:10;16.75;;;14.80;;
58950;SDS011;44730;53.158;6.398;2023-05-07T10:10:37;15.82;;;14.23;;
58950;SDS011;44730;53.158;6.398;2023-05-07T10:13:03;16.55;;;14.85;;
58950;SDS011;44730;53.158;6.398;2023-05-07T10:15:35;16.27;;;14.57;;
58950;SDS011;44730;53.158;6.398;2023-05-07T10:18:03;16.60;;;14.93;;
58950;SDS011;44730;53.158;6.398;2023-05-07T10:20:30;16.58;;;14.88;;
58950;SDS011;44730;53.158;6.398;2023-05-07T10:22:57;15.35;;;13.75;;
58950;SDS011;44730;53.158;6.398;2023-05-07T10:25:31;16.27;;;14.55;;
58950;SDS011;44730;53.158;6.398;2023-05-07T10:28:01;18.13;;;15.25;;
58950;SDS011;44730;53.158;6.398;2023-05-07T10:30:42;17.45;;;15.05;;
58950;SDS011;44730;53.158;6.398;2023-05-07T10:33:11;16.13;;;14.45;;
58950;SDS011;44730;53.158;6.398;2023-05-07T10:35:43;17.50;;;15.30;;
58950;SDS011;44730;53.158;6.398;2023-05-07T10:38:09;18.58;;;15.98;;
58950;SDS011;44730;53.158;6.398;2023-05-07T10:40:36;18.02;;;14.93;;
58950;SDS011;44730;53.158;6.398;2023-05-07T10:43:03;15.73;;;13.88;;
58950;SDS011;44730;53.158;6.398;2023-05-07T10:45:32;17.02;;;15.05;;
58950;SDS011;44730;53.158;6.398;2023-05-07T10:48:14;16.13;;;14.43;;
58950;SDS011;44730;53.158;6.398;2023-05-07T10:50:43;15.43;;;13.82;;
58950;SDS011;44730;53.158;6.398;2023-05-07T10:56:23;16.38;;;14.35;;
58950;SDS011;44730;53.158;6.398;2023-05-07T10:58:29;15.70;;;14.00;;
58950;SDS011;44730;53.158;6.398;2023-05-07T11:00:57;14.82;;;13.32;;
58950;SDS011;44730;53.158;6.398;2023-05-07T11:03:23;15.45;;;13.50;;
58950;SDS011;44730;53.158;6.398;2023-05-07T11:06:08;15.55;;;14.05;;
58950;SDS011;44730;53.158;6.398;2023-05-07T11:11:54;16.15;;;14.45;;
58950;SDS011;44730;53.158;6.398;2023-05-07T11:15:01;15.65;;;14.10;;
58950;SDS011;44730;53.158;6.398;2023-05-07T11:17:02;15.48;;;13.90;;
58950;SDS011;44730;53.158;6.398;2023-05-07T11:19:51;15.48;;;13.75;;
58950;SDS011;44730;53.158;6.398;2023-05-07T11:25:01;15.13;;;13.73;;
58950;SDS011;44730;53.158;6.398;2023-05-07T11:27:27;13.38;;;12.00;;
58950;SDS011;44730;53.158;6.398;2023-05-07T11:29:53;14.10;;;12.57;;
58950;SDS011;44730;53.158;6.398;2023-05-07T11:32:27;13.90;;;12.55;;
58950;SDS011;44730;53.158;6.398;2023-05-07T11:37:21;13.18;;;11.82;;
58950;SDS011;44730;53.158;6.398;2023-05-07T11:39:47;14.90;;;11.90;;
58950;SDS011;44730;53.158;6.398;2023-05-07T11:42:33;13.95;;;12.38;;
58950;SDS011;44730;53.158;6.398;2023-05-07T11:44:59;13.85;;;12.55;;
58950;SDS011;44730;53.158;6.398;2023-05-07T11:47:26;13.70;;;12.32;;
58950;SDS011;44730;53.158;6.398;2023-05-07T11:49:55;14.00;;;12.18;;
58950;SDS011;44730;53.158;6.398;2023-05-07T11:52:22;12.98;;;11.75;;
58950;SDS011;44730;53.158;6.398;2023-05-07T11:54:49;13.35;;;11.95;;
58950;SDS011;44730;53.158;6.398;2023-05-07T11:57:16;13.52;;;12.23;;
58950;SDS011;44730;53.158;6.398;2023-05-07T11:59:42;13.45;;;12.15;;
58950;SDS011;44730;53.158;6.398;2023-05-07T12:02:14;13.80;;;12.43;;
58950;SDS011;44730;53.158;6.398;2023-05-07T12:04:41;14.38;;;13.07;;
58950;SDS011;44730;53.158;6.398;2023-05-07T12:07:14;13.63;;;12.32;;
58950;SDS011;44730;53.158;6.398;2023-05-07T12:09:40;13.17;;;11.93;;
58950;SDS011;44730;53.158;6.398;2023-05-07T12:12:07;14.30;;;12.90;;
58950;SDS011;44730;53.158;6.398;2023-05-07T12:14:36;12.40;;;11.15;;
58950;SDS011;44730;53.158;6.398;2023-05-07T12:17:03;12.65;;;11.45;;
58950;SDS011;44730;53.158;6.398;2023-05-07T12:19:30;13.80;;;12.50;;
58950;SDS011;44730;53.158;6.398;2023-05-07T12:21:57;12.95;;;11.68;;
58950;SDS011;44730;53.158;6.398;2023-05-07T12:24:23;13.10;;;11.90;;
58950;SDS011;44730;53.158;6.398;2023-05-07T12:26:51;13.10;;;12.00;;
58950;SDS011;44730;53.158;6.398;2023-05-07T12:29:20;14.25;;;12.95;;
58950;SDS011;44730;53.158;6.398;2023-05-07T12:31:55;13.13;;;11.85;;
58950;SDS011;44730;53.158;6.398;2023-05-07T12:34:25;12.77;;;11.57;;
58950;SDS011;44730;53.158;6.398;2023-05-07T12:36:52;13.02;;;11.82;;
58950;SDS011;44730;53.158;6.398;2023-05-07T12:39:22;13.73;;;12.32;;
58950;SDS011;44730;53.158;6.398;2023-05-07T12:42:00;12.95;;;11.82;;
58950;SDS011;44730;53.158;6.398;2023-05-07T12:44:35;12.70;;;11.50;;
58950;SDS011;44730;53.158;6.398;2023-05-07T12:47:02;13.93;;;12.73;;
58950;SDS011;44730;53.158;6.398;2023-05-07T12:49:29;12.45;;;11.35;;
58950;SDS011;44730;53.158;6.398;2023-05-07T12:51:57;13.23;;;12.00;;
58950;SDS011;44730;53.158;6.398;2023-05-07T12:54:40;13.38;;;11.75;;
58950;SDS011;44730;53.158;6.398;2023-05-07T12:57:07;13.77;;;12.48;;
58950;SDS011;44730;53.158;6.398;2023-05-07T12:59:43;13.13;;;11.75;;
58950;SDS011;44730;53.158;6.398;2023-05-07T13:02:11;12.30;;;11.15;;
58950;SDS011;44730;53.158;6.398;2023-05-07T13:04:37;13.40;;;12.13;;
58950;SDS011;44730;53.158;6.398;2023-05-07T13:07:05;13.13;;;11.88;;
58950;SDS011;44730;53.158;6.398;2023-05-07T13:09:31;12.77;;;11.60;;
58950;SDS011;44730;53.158;6.398;2023-05-07T13:11:58;12.68;;;11.48;;
58950;SDS011;44730;53.158;6.398;2023-05-07T13:14:28;11.88;;;10.88;;
58950;SDS011;44730;53.158;6.398;2023-05-07T13:16:58;12.13;;;10.98;;
58950;SDS011;44730;53.158;6.398;2023-05-07T13:19:36;11.82;;;10.82;;
58950;SDS011;44730;53.158;6.398;2023-05-07T13:22:04;12.00;;;11.00;;
58950;SDS011;44730;53.158;6.398;2023-05-07T13:24:32;12.48;;;11.18;;
58950;SDS011;44730;53.158;6.398;2023-05-07T13:26:59;12.80;;;11.63;;
58950;SDS011;44730;53.158;6.398;2023-05-07T13:29:25;12.07;;;11.02;;
58950;SDS011;44730;53.158;6.398;2023-05-07T13:31:56;12.55;;;11.45;;
58950;SDS011;44730;53.158;6.398;2023-05-07T13:34:30;12.00;;;10.90;;
58950;SDS011;44730;53.158;6.398;2023-05-07T13:37:00;12.35;;;11.25;;
58950;SDS011;44730;53.158;6.398;2023-05-07T13:39:26;11.45;;;10.38;;
58950;SDS011;44730;53.158;6.398;2023-05-07T13:41:54;12.45;;;11.35;;
58950;SDS011;44730;53.158;6.398;2023-05-07T13:44:30;12.15;;;11.15;;
58950;SDS011;44730;53.158;6.398;2023-05-07T13:46:57;12.32;;;11.18;;
58950;SDS011;44730;53.158;6.398;2023-05-07T13:49:23;13.23;;;12.02;;
58950;SDS011;44730;53.158;6.398;2023-05-07T13:51:56;11.77;;;10.77;;
58950;SDS011;44730;53.158;6.398;2023-05-07T13:54:25;13.88;;;12.45;;
58950;SDS011;44730;53.158;6.398;2023-05-07T13:56:53;12.15;;;10.88;;
58950;SDS011;44730;53.158;6.398;2023-05-07T13:59:20;12.30;;;11.20;;
58950;SDS011;44730;53.158;6.398;2023-05-07T14:01:47;11.73;;;10.73;;
58950;SDS011;44730;53.158;6.398;2023-05-07T14:04:16;11.07;;;10.07;;
58950;SDS011;44730;53.158;6.398;2023-05-07T14:06:46;11.93;;;10.80;;
58950;SDS011;44730;53.158;6.398;2023-05-07T14:09:12;13.35;;;12.13;;
58950;SDS011;44730;53.158;6.398;2023-05-07T14:11:39;12.32;;;11.30;;
58950;SDS011;44730;53.158;6.398;2023-05-07T14:14:11;12.25;;;11.23;;
58950;SDS011;44730;53.158;6.398;2023-05-07T14:16:43;11.98;;;10.88;;
58950;SDS011;44730;53.158;6.398;2023-05-07T14:19:11;13.25;;;12.05;;
58950;SDS011;44730;53.158;6.398;2023-05-07T14:21:38;13.35;;;12.05;;
58950;SDS011;44730;53.158;6.398;2023-05-07T14:24:06;12.60;;;11.40;;
58950;SDS011;44730;53.158;6.398;2023-05-07T14:26:33;12.45;;;11.35;;
58950;SDS011;44730;53.158;6.398;2023-05-07T14:29:00;11.48;;;10.48;;
58950;SDS011;44730;53.158;6.398;2023-05-07T14:31:28;13.32;;;12.02;;
58950;SDS011;44730;53.158;6.398;2023-05-07T14:33:54;12.48;;;11.27;;